Terminal Aerodrome Forecast
Issued by NWS Jackson, KY

Home | Current Version | Previous Version | Text Only | Print | Product List | Glossary On
Versions: 1 2 3 4 5 6 7 8 9 10 11 12 13 14 15 16 17 18 19 20 21 22 23 24 25 26 27
000
FTUS43 KJKL 221700
TAFJKL
TAF
KJKL 221740Z 2218/2318 25007KT P6SM VCTS SCT020CB BKN050
      TEMPO 2218/2220 BKN020CB
     FM222000 24007KT P6SM VCTS SCT020CB BKN040
     FM230600 VRB04KT P6SM VCSH SCT020 BKN100
     FM231400 VRB05KT P6SM VCTS SCT030CB BKN100=

USA.gov is the U.S. government's official web portal to all federal, state and local government web resources and services.